createdAt,value
2019-01-29T00:04:22.424Z,7.73
2019-01-29T00:09:14.068Z,7.40
2019-01-29T00:14:05.756Z,7.40
2019-01-29T00:18:56.712Z,7.43
2019-01-29T00:23:48.368Z,8.82
2019-01-29T00:28:39.349Z,9.10
2019-01-29T00:33:30.265Z,8.20
2019-01-29T00:38:21.180Z,7.60
2019-01-29T00:43:12.083Z,8.67
2019-01-29T00:48:03.019Z,7.97
2019-01-29T00:52:53.928Z,7.47
2019-01-29T00:57:44.832Z,7.70
2019-01-29T01:02:35.807Z,7.00
2019-01-29T01:07:27.456Z,6.83
2019-01-29T01:12:18.451Z,6.40
2019-01-29T01:17:09.366Z,7.20
2019-01-29T01:22:01.085Z,5.50
2019-01-29T01:26:51.993Z,5.07
2019-01-29T01:31:42.937Z,5.80
2019-01-29T01:36:33.859Z,5.03
2019-01-29T01:41:24.896Z,5.43
2019-01-29T01:46:16.559Z,4.80
2019-01-29T01:51:07.479Z,5.07
2019-01-29T01:55:58.504Z,5.20
2019-01-29T02:00:49.427Z,6.28
2019-01-29T02:05:40.340Z,5.10
2019-01-29T02:10:31.250Z,5.93
2019-01-29T02:15:22.231Z,4.70
2019-01-29T02:20:13.150Z,4.10
2019-01-29T02:25:04.042Z,5.20
2019-01-29T02:29:54.981Z,4.90
2019-01-29T02:34:46.222Z,5.23
2019-01-29T02:39:37.902Z,5.00
2019-01-29T02:44:28.824Z,5.00
2019-01-29T02:49:19.807Z,5.97
2019-01-29T02:54:11.483Z,4.77
2019-01-29T02:59:02.399Z,5.40
2019-01-29T03:03:53.314Z,5.83
2019-01-29T03:08:44.282Z,5.23
2019-01-29T03:13:35.176Z,5.40
2019-01-29T03:18:26.130Z,6.10
2019-01-29T03:23:27.005Z,5.83
2019-01-29T03:28:08.784Z,7.50
2019-01-29T03:33:01.188Z,7.18
2019-01-29T03:37:52.101Z,6.87
2019-01-29T03:42:43.062Z,7.00
2019-01-29T03:47:33.974Z,6.63
2019-01-29T03:52:24.911Z,6.60
2019-01-29T03:57:15.827Z,6.87
2019-01-29T04:02:06.741Z,6.00
2019-01-29T04:06:57.900Z,6.60
2019-01-29T04:11:49.549Z,6.80
2019-01-29T04:16:40.513Z,7.30
2019-01-29T04:21:31.432Z,7.82
2019-01-29T04:26:22.357Z,7.13
2019-01-29T04:31:13.273Z,7.00
2019-01-29T04:36:04.214Z,6.10
2019-01-29T04:40:55.889Z,7.33
2019-01-29T04:45:46.809Z,6.53
2019-01-29T04:50:37.769Z,6.70
2019-01-29T04:55:28.688Z,6.47
2019-01-29T05:00:20.379Z,6.30
2019-01-29T05:05:11.336Z,8.30
2019-01-29T05:10:02.263Z,7.20
2019-01-29T05:14:53.197Z,6.80
2019-01-29T05:19:44.123Z,5.80
2019-01-29T05:24:35.847Z,5.23
2019-01-29T05:29:26.762Z,5.63
2019-01-29T05:34:17.795Z,5.33
2019-01-29T05:39:08.715Z,4.90
2019-01-29T05:44:00.392Z,5.40
2019-01-29T05:48:51.321Z,5.13
2019-01-29T05:53:42.232Z,6.50
2019-01-29T05:58:33.207Z,6.10
2019-01-29T06:03:24.945Z,4.90
2019-01-29T06:08:15.876Z,5.37
2019-01-29T06:13:07.612Z,4.67
2019-01-29T06:17:59.275Z,4.33
2019-01-29T06:22:50.204Z,4.40
2019-01-29T06:27:41.165Z,4.50
2019-01-29T06:32:32.065Z,5.20
2019-01-29T06:37:22.987Z,4.83
2019-01-29T06:42:13.930Z,5.43
2019-01-29T06:47:04.846Z,4.87
2019-01-29T06:51:55.757Z,5.67
2019-01-29T06:56:46.684Z,6.27
2019-01-29T07:01:37.606Z,5.60
2019-01-29T07:06:29.260Z,4.70
2019-01-29T07:11:20.921Z,5.10
2019-01-29T07:16:13.911Z,6.03
2019-01-29T07:21:04.839Z,5.20
2019-01-29T07:25:55.741Z,5.23
2019-01-29T07:30:46.701Z,5.67
2019-01-29T07:35:37.613Z,5.00
2019-01-29T07:40:28.566Z,5.70
2019-01-29T07:45:19.550Z,6.00
2019-01-29T07:50:10.569Z,5.23
2019-01-29T07:55:01.488Z,5.70
2019-01-29T07:59:52.517Z,6.53
2019-01-29T08:04:43.540Z,5.20
2019-01-29T08:09:34.553Z,6.47
2019-01-29T08:14:25.508Z,6.17
2019-01-29T08:19:17.229Z,5.87
2019-01-29T08:24:08.963Z,5.80
2019-01-29T08:28:59.996Z,7.20
2019-01-29T08:33:51.714Z,6.70
2019-01-29T08:38:42.814Z,6.27
2019-01-29T08:43:33.759Z,6.23
2019-01-29T08:48:24.769Z,6.93
2019-01-29T08:53:16.475Z,6.60
2019-01-29T08:58:07.415Z,5.60
2019-01-29T09:02:58.349Z,5.20
2019-01-29T09:07:49.395Z,5.50
2019-01-29T09:12:41.058Z,5.67
2019-01-29T09:17:31.991Z,5.72
2019-01-29T09:22:22.904Z,5.67
2019-01-29T09:27:13.829Z,6.45
2019-01-29T09:32:04.754Z,5.50
2019-01-29T09:36:55.680Z,5.63
2019-01-29T09:41:46.599Z,5.67
2019-01-29T09:46:37.531Z,5.57
2019-01-29T09:51:28.459Z,5.93
2019-01-29T09:56:20.202Z,5.60
2019-01-29T10:01:11.101Z,5.27
2019-01-29T10:06:02.051Z,5.70
2019-01-29T10:10:52.981Z,5.70
2019-01-29T10:15:44.635Z,6.30
2019-01-29T10:20:35.545Z,5.83
2019-01-29T10:25:27.199Z,4.83
2019-01-29T10:30:18.113Z,6.30
2019-01-29T10:35:09.879Z,6.10
2019-01-29T10:40:00.804Z,6.50
2019-01-29T10:44:51.764Z,6.13
2019-01-29T10:49:43.423Z,6.10
2019-01-29T10:54:35.096Z,6.90
2019-01-29T10:59:26.048Z,6.90
2019-01-29T11:04:17.756Z,6.80
2019-01-29T11:09:08.725Z,6.83
2019-01-29T11:13:59.625Z,6.23
2019-01-29T11:18:51.283Z,6.80
2019-01-29T11:23:42.212Z,6.70
2019-01-29T11:28:33.145Z,6.67
2019-01-29T11:33:24.068Z,6.90
2019-01-29T11:38:14.973Z,6.47
2019-01-29T11:43:05.899Z,6.23
2019-01-29T11:47:56.803Z,6.63
2019-01-29T11:52:47.701Z,7.80
2019-01-29T11:57:39.428Z,6.40
2019-01-29T12:02:31.085Z,5.57
2019-01-29T12:07:22.013Z,6.93
2019-01-29T12:12:12.922Z,5.73
2019-01-29T12:17:03.845Z,6.20
2019-01-29T12:21:54.756Z,5.93
2019-01-29T12:26:46.421Z,6.10
2019-01-29T12:31:37.351Z,5.50
2019-01-29T12:36:28.276Z,6.50
2019-01-29T12:41:19.200Z,5.87
2019-01-29T12:46:10.125Z,4.57
2019-01-29T12:51:01.071Z,3.90
2019-01-29T12:55:52.729Z,4.33
2019-01-29T13:00:43.637Z,4.20
2019-01-29T13:05:35.319Z,5.87
2019-01-29T13:10:26.236Z,4.17
2019-01-29T13:20:38.093Z,5.15
2019-01-29T13:25:29.054Z,4.50
2019-01-29T13:30:28.756Z,4.57
2019-01-29T13:35:19.658Z,3.43
2019-01-29T13:40:10.598Z,4.00
2019-01-29T13:45:02.272Z,3.83
2019-01-29T13:49:53.188Z,3.67
2019-01-29T13:54:44.111Z,3.60
2019-01-29T13:59:35.026Z,4.22
2019-01-29T14:04:25.963Z,4.00
2019-01-29T14:09:16.873Z,3.67
2019-01-29T14:14:07.793Z,3.33
2019-01-29T14:18:58.719Z,3.00
2019-01-29T14:23:49.636Z,3.57
2019-01-29T14:28:40.608Z,3.87
2019-01-29T14:33:32.267Z,3.90
2019-01-29T14:43:44.636Z,5.00
2019-01-29T14:48:35.588Z,5.20
2019-01-29T14:53:26.529Z,5.10
2019-01-29T14:58:18.186Z,5.73
2019-01-29T15:03:11.370Z,4.80
2019-01-29T15:08:01.010Z,4.20
2019-01-29T15:12:52.036Z,5.40
2019-01-29T15:17:43.721Z,4.90
2019-01-29T15:22:34.641Z,5.07
2019-01-29T15:27:25.848Z,6.10
2019-01-29T15:32:17.527Z,5.73
2019-01-29T15:37:08.477Z,6.20
2019-01-29T15:41:59.421Z,5.70
2019-01-29T15:46:51.088Z,5.80
2019-01-29T15:51:42.019Z,6.13
2019-01-29T15:56:32.935Z,5.47
2019-01-29T16:01:23.877Z,6.07
2019-01-29T16:06:14.794Z,5.93
2019-01-29T16:11:05.831Z,5.67
2019-01-29T16:15:57.558Z,6.27
2019-01-29T16:20:48.461Z,5.70
2019-01-29T16:25:39.419Z,5.60
2019-01-29T16:30:32.081Z,5.67
2019-01-29T16:35:23.763Z,6.00
2019-01-29T16:40:15.496Z,5.30
2019-01-29T16:45:06.393Z,6.50
2019-01-29T16:49:58.063Z,5.62
2019-01-29T16:54:49.021Z,6.13
2019-01-29T16:59:40.004Z,5.50
2019-01-29T17:04:30.996Z,5.13
2019-01-29T17:09:21.916Z,5.50
2019-01-29T17:14:12.917Z,5.00
2019-01-29T17:19:04.642Z,4.67
2019-01-29T17:23:56.380Z,4.77
2019-01-29T17:28:47.303Z,5.80
2019-01-29T17:33:40.357Z,5.50
2019-01-29T17:38:29.913Z,5.20
2019-01-29T17:43:20.864Z,4.93
2019-01-29T17:48:11.792Z,5.40
2019-01-29T17:53:02.710Z,5.33
2019-01-29T17:57:53.613Z,5.30
2019-01-29T18:02:44.548Z,4.63
2019-01-29T18:07:35.477Z,5.77
2019-01-29T18:12:27.139Z,6.20
2019-01-29T18:17:18.057Z,5.07
2019-01-29T18:22:08.965Z,4.80
2019-01-29T18:27:00.630Z,4.53
2019-01-29T18:31:51.549Z,4.60
2019-01-29T18:36:42.505Z,4.70
2019-01-29T18:41:33.435Z,4.50
2019-01-29T18:46:24.332Z,5.10
2019-01-29T18:51:15.407Z,5.27
2019-01-29T18:56:06.405Z,4.93
2019-01-29T19:00:58.075Z,4.77
2019-01-29T19:05:49.027Z,5.53
2019-01-29T19:10:39.996Z,5.33
2019-01-29T19:15:30.969Z,5.43
2019-01-29T19:20:22.709Z,5.00
2019-01-29T19:25:14.449Z,5.20
2019-01-29T19:30:05.370Z,5.03
2019-01-29T19:34:56.325Z,5.80
2019-01-29T19:39:47.305Z,5.47
2019-01-29T19:44:38.257Z,6.20
2019-01-29T19:49:29.982Z,5.20
2019-01-29T19:54:20.889Z,6.03
2019-01-29T19:59:11.811Z,4.70
2019-01-29T20:04:02.837Z,5.23
2019-01-29T20:08:53.872Z,5.50
2019-01-29T20:13:47.085Z,5.90
2019-01-29T20:18:38.255Z,4.60
2019-01-29T20:23:31.321Z,4.70
2019-01-29T20:28:23.075Z,5.65
2019-01-29T20:33:14.808Z,5.07
2019-01-29T20:38:06.625Z,5.10
2019-01-29T20:42:57.571Z,4.60
2019-01-29T20:47:49.311Z,4.30
2019-01-29T20:52:41.079Z,5.20
2019-01-29T20:57:32.035Z,5.20
2019-01-29T21:02:23.104Z,4.67
2019-01-29T21:07:14.075Z,5.50
2019-01-29T21:12:05.163Z,5.13
2019-01-29T21:16:56.191Z,5.20
2019-01-29T21:21:47.163Z,4.90
2019-01-29T21:26:38.141Z,4.80
2019-01-29T21:31:29.170Z,5.07
2019-01-29T21:36:20.189Z,5.97
2019-01-29T21:41:11.136Z,4.80
2019-01-29T21:46:02.859Z,4.67
2019-01-29T21:50:53.887Z,4.90
2019-01-29T21:55:45.631Z,5.00
2019-01-29T22:00:38.307Z,5.53
2019-01-29T22:05:29.604Z,5.53
2019-01-29T22:10:21.338Z,5.35
2019-01-29T22:15:12.371Z,5.23
2019-01-29T22:20:04.089Z,4.33
2019-01-29T22:24:54.993Z,4.80
2019-01-29T22:29:45.933Z,4.63
2019-01-29T22:34:36.945Z,5.30
2019-01-29T22:39:27.877Z,4.20
2019-01-29T22:44:18.900Z,4.77
2019-01-29T22:49:09.945Z,4.30
2019-01-29T22:54:01.644Z,4.63
2019-01-29T22:58:54.372Z,5.50
2019-01-29T23:03:45.328Z,4.57
2019-01-29T23:08:36.367Z,4.63
2019-01-29T23:13:28.089Z,5.17
2019-01-29T23:18:19.147Z,5.47
2019-01-29T23:23:10.139Z,4.80
2019-01-29T23:28:01.160Z,5.10
2019-01-29T23:32:52.195Z,6.10
2019-01-29T23:37:43.994Z,5.67
2019-01-29T23:42:34.910Z,5.07
2019-01-29T23:47:25.869Z,6.20
2019-01-29T23:52:17.585Z,5.60
2019-01-29T23:57:08.624Z,6.00
